sensor_id;sensor_type;location;lat;lon;timestamp;P1;durP1;ratioP1;P2;durP2;ratioP2
1452;SDS011;720;47.738;7.998;2024-03-23T00:54:21;1.40;;;1.30;;
1452;SDS011;720;47.738;7.998;2024-03-23T00:56:47;1.47;;;1.37;;
1452;SDS011;720;47.738;7.998;2024-03-23T00:59:12;1.17;;;1.17;;
1452;SDS011;720;47.738;7.998;2024-03-23T01:01:38;1.52;;;1.35;;
1452;SDS011;720;47.738;7.998;2024-03-23T01:04:04;3.70;;;1.63;;
1452;SDS011;720;47.738;7.998;2024-03-23T01:06:30;1.87;;;1.77;;
1452;SDS011;720;47.738;7.998;2024-03-23T01:08:55;2.00;;;1.33;;
1452;SDS011;720;47.738;7.998;2024-03-23T01:11:21;1.70;;;1.60;;
1452;SDS011;720;47.738;7.998;2024-03-23T01:13:47;3.20;;;1.90;;
1452;SDS011;720;47.738;7.998;2024-03-23T01:16:12;1.63;;;1.20;;
1452;SDS011;720;47.738;7.998;2024-03-23T01:18:38;2.73;;;1.53;;
1452;SDS011;720;47.738;7.998;2024-03-23T01:21:04;2.43;;;1.40;;
1452;SDS011;720;47.738;7.998;2024-03-23T01:23:29;2.27;;;1.60;;
1452;SDS011;720;47.738;7.998;2024-03-23T01:25:55;1.93;;;1.83;;
1452;SDS011;720;47.738;7.998;2024-03-23T01:28:21;2.00;;;1.30;;
1452;SDS011;720;47.738;7.998;2024-03-23T01:30:47;2.10;;;1.65;;
1452;SDS011;720;47.738;7.998;2024-03-23T01:33:13;1.45;;;1.30;;
1452;SDS011;720;47.738;7.998;2024-03-23T01:35:39;4.90;;;1.43;;
1452;SDS011;720;47.738;7.998;2024-03-23T01:38:05;1.97;;;1.87;;
1452;SDS011;720;47.738;7.998;2024-03-23T01:40:31;1.57;;;1.47;;
1452;SDS011;720;47.738;7.998;2024-03-23T01:45:23;3.55;;;1.50;;
1452;SDS011;720;47.738;7.998;2024-03-23T01:47:50;2.27;;;1.97;;
1452;SDS011;720;47.738;7.998;2024-03-23T01:50:17;2.10;;;1.83;;
1452;SDS011;720;47.738;7.998;2024-03-23T01:52:43;3.67;;;1.80;;
1452;SDS011;720;47.738;7.998;2024-03-23T01:55:09;4.60;;;1.90;;
1452;SDS011;720;47.738;7.998;2024-03-23T01:57:35;5.17;;;2.00;;
1452;SDS011;720;47.738;7.998;2024-03-23T02:00:00;2.50;;;2.30;;
1452;SDS011;720;47.738;7.998;2024-03-23T02:02:26;3.77;;;1.73;;
1452;SDS011;720;47.738;7.998;2024-03-23T02:04:51;1.63;;;1.50;;
1452;SDS011;720;47.738;7.998;2024-03-23T02:07:17;1.90;;;1.80;;
1452;SDS011;720;47.738;7.998;2024-03-23T02:09:43;3.90;;;2.03;;
1452;SDS011;720;47.738;7.998;2024-03-23T02:12:10;2.80;;;2.60;;
1452;SDS011;720;47.738;7.998;2024-03-23T02:14:36;1.83;;;1.73;;
1452;SDS011;720;47.738;7.998;2024-03-23T02:17:03;9.63;;;2.60;;
1452;SDS011;720;47.738;7.998;2024-03-23T02:19:29;4.70;;;2.37;;
1452;SDS011;720;47.738;7.998;2024-03-23T02:21:55;2.60;;;1.83;;
1452;SDS011;720;47.738;7.998;2024-03-23T02:24:22;2.40;;;2.10;;
1452;SDS011;720;47.738;7.998;2024-03-23T02:26:48;2.60;;;2.40;;
1452;SDS011;720;47.738;7.998;2024-03-23T02:29:13;1.93;;;1.77;;
1452;SDS011;720;47.738;7.998;2024-03-23T02:31:39;3.03;;;2.27;;
1452;SDS011;720;47.738;7.998;2024-03-23T02:34:05;2.07;;;1.93;;
1452;SDS011;720;47.738;7.998;2024-03-23T02:36:31;2.23;;;2.00;;
1452;SDS011;720;47.738;7.998;2024-03-23T02:38:57;2.23;;;2.10;;
1452;SDS011;720;47.738;7.998;2024-03-23T02:41:23;1.97;;;1.77;;
1452;SDS011;720;47.738;7.998;2024-03-23T02:43:51;3.57;;;2.27;;
1452;SDS011;720;47.738;7.998;2024-03-23T02:46:19;2.70;;;2.50;;
1452;SDS011;720;47.738;7.998;2024-03-23T02:48:45;4.00;;;2.57;;
1452;SDS011;720;47.738;7.998;2024-03-23T02:51:13;4.87;;;2.10;;
1452;SDS011;720;47.738;7.998;2024-03-23T02:53:39;2.17;;;1.97;;
1452;SDS011;720;47.738;7.998;2024-03-23T02:56:05;3.13;;;2.83;;
1452;SDS011;720;47.738;7.998;2024-03-23T02:58:31;1.90;;;1.60;;
1452;SDS011;720;47.738;7.998;2024-03-23T03:00:57;2.50;;;2.20;;
1452;SDS011;720;47.738;7.998;2024-03-23T03:03:23;2.50;;;1.73;;
1452;SDS011;720;47.738;7.998;2024-03-23T03:05:54;4.60;;;2.47;;
1452;SDS011;720;47.738;7.998;2024-03-23T03:08:21;1.47;;;1.37;;
1452;SDS011;720;47.738;7.998;2024-03-23T03:10:46;3.43;;;2.20;;
1452;SDS011;720;47.738;7.998;2024-03-23T03:13:12;4.77;;;2.23;;
1452;SDS011;720;47.738;7.998;2024-03-23T03:15:40;2.60;;;2.40;;
1452;SDS011;720;47.738;7.998;2024-03-23T03:18:07;2.67;;;2.43;;
1452;SDS011;720;47.738;7.998;2024-03-23T03:20:33;1.73;;;1.40;;
1452;SDS011;720;47.738;7.998;2024-03-23T03:22:59;2.03;;;1.90;;
1452;SDS011;720;47.738;7.998;2024-03-23T03:25:25;3.63;;;2.97;;
1452;SDS011;720;47.738;7.998;2024-03-23T03:27:51;2.83;;;2.50;;
1452;SDS011;720;47.738;7.998;2024-03-23T03:30:16;3.47;;;2.93;;
1452;SDS011;720;47.738;7.998;2024-03-23T03:32:42;2.83;;;2.57;;
1452;SDS011;720;47.738;7.998;2024-03-23T03:35:08;4.27;;;2.50;;
1452;SDS011;720;47.738;7.998;2024-03-23T03:37:33;3.33;;;2.53;;
1452;SDS011;720;47.738;7.998;2024-03-23T03:39:59;2.23;;;1.80;;
1452;SDS011;720;47.738;7.998;2024-03-23T03:42:25;3.53;;;2.03;;
1452;SDS011;720;47.738;7.998;2024-03-23T03:44:50;2.10;;;2.00;;
1452;SDS011;720;47.738;7.998;2024-03-23T03:47:17;2.63;;;2.00;;
1452;SDS011;720;47.738;7.998;2024-03-23T03:49:43;4.37;;;2.07;;
1452;SDS011;720;47.738;7.998;2024-03-23T03:52:08;2.83;;;2.13;;
1452;SDS011;720;47.738;7.998;2024-03-23T03:54:34;4.80;;;2.77;;
1452;SDS011;720;47.738;7.998;2024-03-23T03:57:00;3.87;;;2.30;;
1452;SDS011;720;47.738;7.998;2024-03-23T03:59:26;1.93;;;1.83;;
1452;SDS011;720;47.738;7.998;2024-03-23T04:01:51;2.70;;;2.50;;
1452;SDS011;720;47.738;7.998;2024-03-23T04:04:17;3.47;;;3.17;;
1452;SDS011;720;47.738;7.998;2024-03-23T04:06:43;3.40;;;2.17;;
1452;SDS011;720;47.738;7.998;2024-03-23T04:09:09;4.27;;;1.83;;
1452;SDS011;720;47.738;7.998;2024-03-23T04:11:35;3.70;;;2.47;;
1452;SDS011;720;47.738;7.998;2024-03-23T04:14:01;5.30;;;3.27;;
1452;SDS011;720;47.738;7.998;2024-03-23T04:16:34;16.03;;;2.97;;
1452;SDS011;720;47.738;7.998;2024-03-23T04:19:00;2.60;;;2.40;;
1452;SDS011;720;47.738;7.998;2024-03-23T04:21:26;3.40;;;2.93;;
1452;SDS011;720;47.738;7.998;2024-03-23T04:23:52;8.60;;;3.00;;
1452;SDS011;720;47.738;7.998;2024-03-23T04:26:18;3.17;;;2.93;;
1452;SDS011;720;47.738;7.998;2024-03-23T04:28:43;3.83;;;3.00;;
1452;SDS011;720;47.738;7.998;2024-03-23T04:31:09;3.43;;;2.80;;
1452;SDS011;720;47.738;7.998;2024-03-23T04:33:35;3.05;;;2.78;;
1452;SDS011;720;47.738;7.998;2024-03-23T04:36:00;3.33;;;3.03;;
1452;SDS011;720;47.738;7.998;2024-03-23T04:38:26;3.70;;;2.20;;
1452;SDS011;720;47.738;7.998;2024-03-23T04:40:55;2.63;;;2.17;;
1452;SDS011;720;47.738;7.998;2024-03-23T04:43:22;2.47;;;1.93;;
1452;SDS011;720;47.738;7.998;2024-03-23T04:45:48;7.50;;;2.90;;
1452;SDS011;720;47.738;7.998;2024-03-23T04:48:14;3.40;;;2.40;;
1452;SDS011;720;47.738;7.998;2024-03-23T04:50:39;3.50;;;3.00;;
1452;SDS011;720;47.738;7.998;2024-03-23T04:53:06;4.70;;;3.40;;
1452;SDS011;720;47.738;7.998;2024-03-23T04:55:32;3.25;;;3.05;;
1452;SDS011;720;47.738;7.998;2024-03-23T04:57:57;5.00;;;4.57;;
1452;SDS011;720;47.738;7.998;2024-03-23T05:00:23;5.37;;;3.60;;
1452;SDS011;720;47.738;7.998;2024-03-23T05:02:50;7.78;;;4.72;;
1452;SDS011;720;47.738;7.998;2024-03-23T05:05:15;4.97;;;4.50;;
1452;SDS011;720;47.738;7.998;2024-03-23T05:07:41;4.90;;;4.40;;
1452;SDS011;720;47.738;7.998;2024-03-23T05:10:08;6.73;;;5.73;;
1452;SDS011;720;47.738;7.998;2024-03-23T05:12:38;6.23;;;5.07;;
1452;SDS011;720;47.738;7.998;2024-03-23T05:15:04;4.23;;;3.93;;
1452;SDS011;720;47.738;7.998;2024-03-23T05:17:31;7.35;;;6.30;;
1452;SDS011;720;47.738;7.998;2024-03-23T05:19:58;8.52;;;6.45;;
1452;SDS011;720;47.738;7.998;2024-03-23T05:22:23;7.47;;;5.77;;
1452;SDS011;720;47.738;7.998;2024-03-23T05:24:49;6.30;;;5.13;;
1452;SDS011;720;47.738;7.998;2024-03-23T05:27:15;7.10;;;5.30;;
1452;SDS011;720;47.738;7.998;2024-03-23T05:29:41;6.23;;;5.63;;
1452;SDS011;720;47.738;7.998;2024-03-23T05:32:06;8.30;;;5.50;;
1452;SDS011;720;47.738;7.998;2024-03-23T05:34:32;4.80;;;4.17;;
1452;SDS011;720;47.738;7.998;2024-03-23T05:36:58;7.63;;;4.90;;
1452;SDS011;720;47.738;7.998;2024-03-23T05:39:24;6.50;;;4.70;;
1452;SDS011;720;47.738;7.998;2024-03-23T05:41:51;8.73;;;5.50;;
1452;SDS011;720;47.738;7.998;2024-03-23T05:44:17;6.30;;;4.70;;
1452;SDS011;720;47.738;7.998;2024-03-23T05:46:43;5.20;;;4.70;;
1452;SDS011;720;47.738;7.998;2024-03-23T05:49:13;9.43;;;5.07;;
1452;SDS011;720;47.738;7.998;2024-03-23T05:51:39;3.97;;;3.63;;
1452;SDS011;720;47.738;7.998;2024-03-23T05:54:04;3.63;;;3.33;;
1452;SDS011;720;47.738;7.998;2024-03-23T05:56:30;4.33;;;3.93;;
1452;SDS011;720;47.738;7.998;2024-03-23T05:58:56;6.63;;;4.10;;
1452;SDS011;720;47.738;7.998;2024-03-23T06:01:21;6.63;;;4.50;;
1452;SDS011;720;47.738;7.998;2024-03-23T06:03:47;5.33;;;4.20;;
1452;SDS011;720;47.738;7.998;2024-03-23T06:06:12;5.80;;;4.63;;
1452;SDS011;720;47.738;7.998;2024-03-23T06:08:38;6.50;;;4.77;;
1452;SDS011;720;47.738;7.998;2024-03-23T06:11:04;4.83;;;3.90;;
1452;SDS011;720;47.738;7.998;2024-03-23T06:13:33;8.27;;;5.70;;
1452;SDS011;720;47.738;7.998;2024-03-23T06:16:00;4.22;;;3.78;;
1452;SDS011;720;47.738;7.998;2024-03-23T06:18:26;9.60;;;3.90;;
1452;SDS011;720;47.738;7.998;2024-03-23T06:20:53;5.88;;;4.20;;
1452;SDS011;720;47.738;7.998;2024-03-23T06:23:18;5.70;;;4.00;;
1452;SDS011;720;47.738;7.998;2024-03-23T06:25:46;7.03;;;5.03;;
1452;SDS011;720;47.738;7.998;2024-03-23T06:28:12;5.90;;;4.95;;
1452;SDS011;720;47.738;7.998;2024-03-23T06:30:39;5.00;;;4.38;;
1452;SDS011;720;47.738;7.998;2024-03-23T06:33:04;7.47;;;5.37;;
1452;SDS011;720;47.738;7.998;2024-03-23T06:35:33;5.22;;;4.50;;
1452;SDS011;720;47.738;7.998;2024-03-23T06:37:59;5.00;;;4.20;;
1452;SDS011;720;47.738;7.998;2024-03-23T06:40:24;4.77;;;4.20;;
1452;SDS011;720;47.738;7.998;2024-03-23T06:42:50;8.23;;;6.00;;
1452;SDS011;720;47.738;7.998;2024-03-23T06:45:16;6.20;;;5.23;;
1452;SDS011;720;47.738;7.998;2024-03-23T06:47:47;5.15;;;4.65;;
1452;SDS011;720;47.738;7.998;2024-03-23T06:50:14;5.38;;;3.80;;
1452;SDS011;720;47.738;7.998;2024-03-23T06:52:41;3.92;;;3.63;;
1452;SDS011;720;47.738;7.998;2024-03-23T06:55:07;4.67;;;3.40;;
1452;SDS011;720;47.738;7.998;2024-03-23T06:57:33;4.53;;;3.42;;
1452;SDS011;720;47.738;7.998;2024-03-23T06:59:59;5.00;;;4.03;;
1452;SDS011;720;47.738;7.998;2024-03-23T07:02:24;4.70;;;3.80;;
1452;SDS011;720;47.738;7.998;2024-03-23T07:04:50;5.40;;;4.90;;
1452;SDS011;720;47.738;7.998;2024-03-23T07:07:16;8.80;;;4.87;;
1452;SDS011;720;47.738;7.998;2024-03-23T07:09:41;5.43;;;3.97;;
1452;SDS011;720;47.738;7.998;2024-03-23T07:12:07;4.43;;;3.73;;
1452;SDS011;720;47.738;7.998;2024-03-23T07:14:33;4.50;;;3.90;;
1452;SDS011;720;47.738;7.998;2024-03-23T07:16:58;5.07;;;4.53;;
1452;SDS011;720;47.738;7.998;2024-03-23T07:19:24;3.70;;;2.93;;
1452;SDS011;720;47.738;7.998;2024-03-23T07:21:49;4.03;;;2.83;;
1452;SDS011;720;47.738;7.998;2024-03-23T07:24:15;3.97;;;1.90;;
1452;SDS011;720;47.738;7.998;2024-03-23T07:26:41;2.60;;;2.40;;
1452;SDS011;720;47.738;7.998;2024-03-23T07:29:06;2.00;;;1.80;;
1452;SDS011;720;47.738;7.998;2024-03-23T07:31:32;0.90;;;0.80;;
1452;SDS011;720;47.738;7.998;2024-03-23T07:33:58;1.33;;;1.23;;
1452;SDS011;720;47.738;7.998;2024-03-23T07:36:23;1.23;;;1.13;;
1452;SDS011;720;47.738;7.998;2024-03-23T07:38:49;0.80;;;0.80;;
1452;SDS011;720;47.738;7.998;2024-03-23T07:41:15;0.83;;;0.83;;
1452;SDS011;720;47.738;7.998;2024-03-23T07:43:45;1.30;;;1.20;;
1452;SDS011;720;47.738;7.998;2024-03-23T07:46:11;0.77;;;0.77;;
1452;SDS011;720;47.738;7.998;2024-03-23T07:48:37;1.02;;;0.70;;
1452;SDS011;720;47.738;7.998;2024-03-23T07:51:11;1.05;;;0.70;;
1452;SDS011;720;47.738;7.998;2024-03-23T07:53:42;0.77;;;0.77;;
1452;SDS011;720;47.738;7.998;2024-03-23T07:56:09;0.60;;;0.60;;
1452;SDS011;720;47.738;7.998;2024-03-23T07:58:35;0.60;;;0.60;;
1452;SDS011;720;47.738;7.998;2024-03-23T08:01:19;0.40;;;0.40;;
1452;SDS011;720;47.738;7.998;2024-03-23T08:03:45;3.75;;;0.60;;
1452;SDS011;720;47.738;7.998;2024-03-23T08:06:12;0.50;;;0.50;;
1452;SDS011;720;47.738;7.998;2024-03-23T08:08:45;0.40;;;0.40;;
1452;SDS011;720;47.738;7.998;2024-03-23T08:11:13;0.73;;;0.68;;
1452;SDS011;720;47.738;7.998;2024-03-23T08:13:40;1.35;;;0.50;;
1452;SDS011;720;47.738;7.998;2024-03-23T08:16:06;0.40;;;0.40;;
1452;SDS011;720;47.738;7.998;2024-03-23T08:18:33;0.45;;;0.40;;
1452;SDS011;720;47.738;7.998;2024-03-23T08:21:00;0.70;;;0.70;;
1452;SDS011;720;47.738;7.998;2024-03-23T08:23:27;1.33;;;0.60;;
1452;SDS011;720;47.738;7.998;2024-03-23T08:25:57;1.05;;;0.77;;
1452;SDS011;720;47.738;7.998;2024-03-23T08:28:24;0.73;;;0.60;;
1452;SDS011;720;47.738;7.998;2024-03-23T08:30:50;2.35;;;1.10;;
1452;SDS011;720;47.738;7.998;2024-03-23T08:33:16;2.85;;;1.48;;
1452;SDS011;720;47.738;7.998;2024-03-23T08:35:42;1.00;;;0.90;;
1452;SDS011;720;47.738;7.998;2024-03-23T08:38:17;1.43;;;1.13;;
1452;SDS011;720;47.738;7.998;2024-03-23T08:40:43;1.13;;;1.03;;
1452;SDS011;720;47.738;7.998;2024-03-23T08:43:08;1.53;;;1.00;;
1452;SDS011;720;47.738;7.998;2024-03-23T08:45:34;1.10;;;0.97;;
1452;SDS011;720;47.738;7.998;2024-03-23T08:47:59;1.23;;;1.13;;
1452;SDS011;720;47.738;7.998;2024-03-23T08:50:25;1.43;;;1.20;;
1452;SDS011;720;47.738;7.998;2024-03-23T08:52:51;2.23;;;0.70;;
1452;SDS011;720;47.738;7.998;2024-03-23T08:55:17;1.50;;;0.87;;
1452;SDS011;720;47.738;7.998;2024-03-23T08:57:43;2.10;;;0.83;;
1452;SDS011;720;47.738;7.998;2024-03-23T09:00:09;4.27;;;0.63;;
1452;SDS011;720;47.738;7.998;2024-03-23T09:02:36;1.70;;;1.60;;
1452;SDS011;720;47.738;7.998;2024-03-23T09:05:02;2.57;;;1.17;;
1452;SDS011;720;47.738;7.998;2024-03-23T09:07:30;2.30;;;1.10;;
1452;SDS011;720;47.738;7.998;2024-03-23T09:09:57;1.10;;;0.87;;
1452;SDS011;720;47.738;7.998;2024-03-23T09:12:23;1.13;;;0.90;;
1452;SDS011;720;47.738;7.998;2024-03-23T09:14:50;1.70;;;1.07;;
1452;SDS011;720;47.738;7.998;2024-03-23T09:17:15;2.50;;;1.17;;
1452;SDS011;720;47.738;7.998;2024-03-23T09:19:41;1.60;;;1.23;;
1452;SDS011;720;47.738;7.998;2024-03-23T09:22:07;2.80;;;1.37;;
1452;SDS011;720;47.738;7.998;2024-03-23T09:24:33;2.93;;;1.10;;
1452;SDS011;720;47.738;7.998;2024-03-23T09:26:58;3.50;;;1.33;;
1452;SDS011;720;47.738;7.998;2024-03-23T09:29:24;2.60;;;0.90;;
1452;SDS011;720;47.738;7.998;2024-03-23T09:31:49;1.50;;;1.40;;
1452;SDS011;720;47.738;7.998;2024-03-23T09:34:15;2.30;;;1.37;;
1452;SDS011;720;47.738;7.998;2024-03-23T09:36:41;2.60;;;1.77;;
1452;SDS011;720;47.738;7.998;2024-03-23T09:39:06;3.70;;;1.27;;
1452;SDS011;720;47.738;7.998;2024-03-23T09:41:34;2.90;;;1.57;;
1452;SDS011;720;47.738;7.998;2024-03-23T09:44:01;1.67;;;1.10;;
1452;SDS011;720;47.738;7.998;2024-03-23T09:46:27;3.43;;;3.03;;
1452;SDS011;720;47.738;7.998;2024-03-23T09:48:53;3.27;;;1.47;;
1452;SDS011;720;47.738;7.998;2024-03-23T09:51:21;1.43;;;1.20;;
1452;SDS011;720;47.738;7.998;2024-03-23T09:53:47;6.03;;;1.33;;
1452;SDS011;720;47.738;7.998;2024-03-23T09:56:15;4.20;;;2.40;;
1452;SDS011;720;47.738;7.998;2024-03-23T09:58:42;5.00;;;1.97;;
1452;SDS011;720;47.738;7.998;2024-03-23T10:01:07;1.70;;;1.33;;
1452;SDS011;720;47.738;7.998;2024-03-23T10:03:46;3.53;;;2.40;;
1452;SDS011;720;47.738;7.998;2024-03-23T10:06:12;3.57;;;1.73;;
1452;SDS011;720;47.738;7.998;2024-03-23T10:08:37;2.53;;;1.60;;
1452;SDS011;720;47.738;7.998;2024-03-23T10:11:13;7.40;;;1.63;;
1452;SDS011;720;47.738;7.998;2024-03-23T10:13:43;3.50;;;1.80;;
1452;SDS011;720;47.738;7.998;2024-03-23T10:16:11;2.80;;;1.67;;
1452;SDS011;720;47.738;7.998;2024-03-23T10:18:37;3.43;;;1.50;;
1452;SDS011;720;47.738;7.998;2024-03-23T10:23:33;4.17;;;1.80;;
1452;SDS011;720;47.738;7.998;2024-03-23T10:31:36;4.23;;;1.80;;
1452;SDS011;720;47.738;7.998;2024-03-23T10:34:02;5.93;;;1.97;;
1452;SDS011;720;47.738;7.998;2024-03-23T10:36:29;3.20;;;2.77;;
1452;SDS011;720;47.738;7.998;2024-03-23T10:38:55;6.93;;;1.50;;
1452;SDS011;720;47.738;7.998;2024-03-23T10:41:24;4.77;;;2.07;;
1452;SDS011;720;47.738;7.998;2024-03-23T10:43:52;3.93;;;1.80;;
1452;SDS011;720;47.738;7.998;2024-03-23T10:46:20;2.20;;;1.17;;
1452;SDS011;720;47.738;7.998;2024-03-23T10:48:46;3.37;;;2.70;;
1452;SDS011;720;47.738;7.998;2024-03-23T10:51:12;3.20;;;1.87;;
1452;SDS011;720;47.738;7.998;2024-03-23T10:53:40;3.47;;;1.80;;
1452;SDS011;720;47.738;7.998;2024-03-23T10:56:06;4.67;;;1.73;;
1452;SDS011;720;47.738;7.998;2024-03-23T10:58:36;1.83;;;1.33;;
1452;SDS011;720;47.738;7.998;2024-03-23T11:01:10;2.80;;;2.10;;
1452;SDS011;720;47.738;7.998;2024-03-23T11:03:38;2.40;;;1.83;;
1452;SDS011;720;47.738;7.998;2024-03-23T11:06:05;2.70;;;1.80;;
1452;SDS011;720;47.738;7.998;2024-03-23T11:08:34;2.73;;;2.20;;
1452;SDS011;720;47.738;7.998;2024-03-23T11:11:18;1.50;;;1.40;;
1452;SDS011;720;47.738;7.998;2024-03-23T11:13:50;3.95;;;2.97;;
1452;SDS011;720;47.738;7.998;2024-03-23T11:18:43;6.70;;;2.63;;
1452;SDS011;720;47.738;7.998;2024-03-23T11:21:09;5.22;;;2.10;;
1452;SDS011;720;47.738;7.998;2024-03-23T11:23:36;2.67;;;1.33;;
1452;SDS011;720;47.738;7.998;2024-03-23T11:26:02;3.87;;;1.87;;
1452;SDS011;720;47.738;7.998;2024-03-23T11:28:31;1.85;;;1.45;;
1452;SDS011;720;47.738;7.998;2024-03-23T11:30:57;4.23;;;1.47;;
1452;SDS011;720;47.738;7.998;2024-03-23T11:33:23;1.77;;;0.97;;
1452;SDS011;720;47.738;7.998;2024-03-23T11:35:48;5.70;;;1.77;;
1452;SDS011;720;47.738;7.998;2024-03-23T11:38:17;2.13;;;1.90;;
1452;SDS011;720;47.738;7.998;2024-03-23T11:40:47;7.38;;;2.58;;
1452;SDS011;720;47.738;7.998;2024-03-23T11:43:14;2.65;;;1.15;;
1452;SDS011;720;47.738;7.998;2024-03-23T11:45:49;1.95;;;1.73;;
1452;SDS011;720;47.738;7.998;2024-03-23T11:48:20;2.20;;;1.30;;
1452;SDS011;720;47.738;7.998;2024-03-23T11:50:48;1.88;;;1.38;;
1452;SDS011;720;47.738;7.998;2024-03-23T11:55:52;1.35;;;1.25;;
1452;SDS011;720;47.738;7.998;2024-03-23T11:58:20;1.30;;;1.20;;
1452;SDS011;720;47.738;7.998;2024-03-23T12:03:22;2.88;;;2.22;;
1452;SDS011;720;47.738;7.998;2024-03-23T12:05:53;8.13;;;4.40;;
1452;SDS011;720;47.738;7.998;2024-03-23T12:08:23;0.90;;;0.90;;
1452;SDS011;720;47.738;7.998;2024-03-23T12:11:06;2.00;;;1.20;;
1452;SDS011;720;47.738;7.998;2024-03-23T12:13:32;1.52;;;1.42;;
1452;SDS011;720;47.738;7.998;2024-03-23T12:18:44;4.10;;;1.50;;
1452;SDS011;720;47.738;7.998;2024-03-23T12:21:10;5.25;;;1.60;;
1452;SDS011;720;47.738;7.998;2024-03-23T12:23:38;7.68;;;1.17;;
1452;SDS011;720;47.738;7.998;2024-03-23T12:26:05;5.50;;;1.40;;
1452;SDS011;720;47.738;7.998;2024-03-23T12:28:31;4.60;;;1.73;;
1452;SDS011;720;47.738;7.998;2024-03-23T12:30:57;3.65;;;2.47;;
1452;SDS011;720;47.738;7.998;2024-03-23T12:33:23;2.83;;;1.87;;
1452;SDS011;720;47.738;7.998;2024-03-23T12:35:48;1.40;;;1.30;;
1452;SDS011;720;47.738;7.998;2024-03-23T12:38:15;1.48;;;1.23;;
1452;SDS011;720;47.738;7.998;2024-03-23T12:40:42;6.68;;;2.10;;
1452;SDS011;720;47.738;7.998;2024-03-23T12:43:12;16.13;;;7.28;;
1452;SDS011;720;47.738;7.998;2024-03-23T12:45:38;4.13;;;2.60;;
1452;SDS011;720;47.738;7.998;2024-03-23T12:48:03;3.87;;;1.60;;
1452;SDS011;720;47.738;7.998;2024-03-23T12:50:29;2.07;;;1.90;;
1452;SDS011;720;47.738;7.998;2024-03-23T12:52:55;4.67;;;3.03;;
1452;SDS011;720;47.738;7.998;2024-03-23T12:55:20;4.87;;;2.00;;
1452;SDS011;720;47.738;7.998;2024-03-23T12:57:46;7.00;;;2.30;;
1452;SDS011;720;47.738;7.998;2024-03-23T13:00:12;4.33;;;2.07;;
1452;SDS011;720;47.738;7.998;2024-03-23T13:02:40;3.47;;;2.17;;
1452;SDS011;720;47.738;7.998;2024-03-23T13:05:06;1.27;;;1.10;;
1452;SDS011;720;47.738;7.998;2024-03-23T13:07:33;7.57;;;4.85;;
1452;SDS011;720;47.738;7.998;2024-03-23T13:10:00;1.80;;;1.58;;
1452;SDS011;720;47.738;7.998;2024-03-23T13:12:27;5.15;;;1.98;;
1452;SDS011;720;47.738;7.998;2024-03-23T13:14:52;3.47;;;1.67;;
1452;SDS011;720;47.738;7.998;2024-03-23T13:17:18;1.10;;;1.10;;
1452;SDS011;720;47.738;7.998;2024-03-23T13:19:44;6.13;;;5.07;;
1452;SDS011;720;47.738;7.998;2024-03-23T13:22:09;3.03;;;1.83;;
1452;SDS011;720;47.738;7.998;2024-03-23T13:24:36;2.67;;;2.20;;
1452;SDS011;720;47.738;7.998;2024-03-23T13:27:03;3.95;;;3.05;;
1452;SDS011;720;47.738;7.998;2024-03-23T13:29:31;1.67;;;1.33;;
1452;SDS011;720;47.738;7.998;2024-03-23T13:31:57;3.83;;;1.63;;
1452;SDS011;720;47.738;7.998;2024-03-23T13:34:22;5.90;;;2.90;;
1452;SDS011;720;47.738;7.998;2024-03-23T13:36:48;2.77;;;1.37;;
1452;SDS011;720;47.738;7.998;2024-03-23T13:39:14;2.27;;;1.70;;
1452;SDS011;720;47.738;7.998;2024-03-23T13:41:41;2.15;;;1.58;;
1452;SDS011;720;47.738;7.998;2024-03-23T13:44:08;7.15;;;1.80;;
1452;SDS011;720;47.738;7.998;2024-03-23T13:46:37;1.40;;;1.30;;
1452;SDS011;720;47.738;7.998;2024-03-23T13:49:14;3.55;;;1.85;;
1452;SDS011;720;47.738;7.998;2024-03-23T13:51:53;2.35;;;2.15;;
1452;SDS011;720;47.738;7.998;2024-03-23T13:54:19;9.07;;;4.57;;
1452;SDS011;720;47.738;7.998;2024-03-23T13:56:47;4.80;;;1.85;;
1452;SDS011;720;47.738;7.998;2024-03-23T13:59:13;2.97;;;1.65;;
1452;SDS011;720;47.738;7.998;2024-03-23T14:01:39;1.40;;;1.20;;
1452;SDS011;720;47.738;7.998;2024-03-23T14:04:05;3.20;;;1.20;;
1452;SDS011;720;47.738;7.998;2024-03-23T14:06:31;2.85;;;1.23;;
1452;SDS011;720;47.738;7.998;2024-03-23T14:08:57;4.00;;;1.40;;
1452;SDS011;720;47.738;7.998;2024-03-23T14:11:22;3.33;;;2.20;;
1452;SDS011;720;47.738;7.998;2024-03-23T14:13:48;2.60;;;1.10;;
1452;SDS011;720;47.738;7.998;2024-03-23T14:16:13;7.80;;;1.80;;
1452;SDS011;720;47.738;7.998;2024-03-23T14:18:39;6.40;;;1.90;;
1452;SDS011;720;47.738;7.998;2024-03-23T14:21:05;9.27;;;1.80;;
1452;SDS011;720;47.738;7.998;2024-03-23T14:23:32;3.72;;;1.30;;
1452;SDS011;720;47.738;7.998;2024-03-23T14:26:00;2.28;;;0.90;;
1452;SDS011;720;47.738;7.998;2024-03-23T14:28:26;1.33;;;1.10;;
1452;SDS011;720;47.738;7.998;2024-03-23T14:30:51;4.83;;;0.93;;
1452;SDS011;720;47.738;7.998;2024-03-23T14:33:20;1.35;;;1.25;;
1452;SDS011;720;47.738;7.998;2024-03-23T14:35:52;1.50;;;1.40;;
1452;SDS011;720;47.738;7.998;2024-03-23T14:38:24;0.70;;;0.70;;
1452;SDS011;720;47.738;7.998;2024-03-23T14:40:50;3.50;;;1.40;;
1452;SDS011;720;47.738;7.998;2024-03-23T14:43:19;6.18;;;1.25;;
1452;SDS011;720;47.738;7.998;2024-03-23T14:48:38;1.77;;;1.35;;
1452;SDS011;720;47.738;7.998;2024-03-23T14:51:04;1.88;;;1.10;;
1452;SDS011;720;47.738;7.998;2024-03-23T14:53:34;1.60;;;1.10;;
1452;SDS011;720;47.738;7.998;2024-03-23T14:56:02;1.88;;;1.20;;
1452;SDS011;720;47.738;7.998;2024-03-23T14:58:29;1.10;;;0.80;;
1452;SDS011;720;47.738;7.998;2024-03-23T15:01:05;1.83;;;1.52;;
1452;SDS011;720;47.738;7.998;2024-03-23T15:03:38;1.77;;;0.73;;
1452;SDS011;720;47.738;7.998;2024-03-23T15:06:04;1.75;;;0.88;;
1452;SDS011;720;47.738;7.998;2024-03-23T15:08:31;1.55;;;1.10;;
1452;SDS011;720;47.738;7.998;2024-03-23T15:10:59;0.80;;;0.77;;
1452;SDS011;720;47.738;7.998;2024-03-23T15:13:30;2.25;;;1.70;;
1452;SDS011;720;47.738;7.998;2024-03-23T15:15:59;2.30;;;1.00;;
1452;SDS011;720;47.738;7.998;2024-03-23T15:18:24;5.90;;;0.80;;
1452;SDS011;720;47.738;7.998;2024-03-23T15:21:00;1.20;;;0.95;;
1452;SDS011;720;47.738;7.998;2024-03-23T15:23:27;4.53;;;1.77;;
1452;SDS011;720;47.738;7.998;2024-03-23T15:25:57;1.52;;;1.00;;
1452;SDS011;720;47.738;7.998;2024-03-23T15:28:26;3.60;;;1.30;;
1452;SDS011;720;47.738;7.998;2024-03-23T15:31:06;3.45;;;0.85;;
1452;SDS011;720;47.738;7.998;2024-03-23T15:33:35;1.38;;;0.82;;
1452;SDS011;720;47.738;7.998;2024-03-23T15:36:01;10.73;;;1.55;;
1452;SDS011;720;47.738;7.998;2024-03-23T15:38:28;1.50;;;1.40;;
1452;SDS011;720;47.738;7.998;2024-03-23T15:40:56;4.50;;;1.27;;
1452;SDS011;720;47.738;7.998;2024-03-23T15:43:22;1.27;;;1.10;;
1452;SDS011;720;47.738;7.998;2024-03-23T15:45:57;1.40;;;1.30;;
1452;SDS011;720;47.738;7.998;2024-03-23T15:48:25;1.42;;;1.33;;
1452;SDS011;720;47.738;7.998;2024-03-23T15:50:54;2.15;;;0.85;;
1452;SDS011;720;47.738;7.998;2024-03-23T15:53:20;4.53;;;1.80;;
1452;SDS011;720;47.738;7.998;2024-03-23T15:55:55;9.27;;;1.20;;
1452;SDS011;720;47.738;7.998;2024-03-23T15:58:25;1.25;;;0.63;;
1452;SDS011;720;47.738;7.998;2024-03-23T16:00:59;4.90;;;2.67;;
1452;SDS011;720;47.738;7.998;2024-03-23T16:03:36;1.95;;;1.33;;
1452;SDS011;720;47.738;7.998;2024-03-23T16:06:03;1.40;;;0.77;;
1452;SDS011;720;47.738;7.998;2024-03-23T16:08:29;4.88;;;1.17;;
1452;SDS011;720;47.738;7.998;2024-03-23T16:10:59;2.38;;;1.35;;
1452;SDS011;720;47.738;7.998;2024-03-23T16:13:26;3.15;;;2.75;;
1452;SDS011;720;47.738;7.998;2024-03-23T16:15:56;1.40;;;1.30;;
1452;SDS011;720;47.738;7.998;2024-03-23T16:18:23;2.20;;;0.90;;
1452;SDS011;720;47.738;7.998;2024-03-23T16:20:53;3.17;;;1.52;;
1452;SDS011;720;47.738;7.998;2024-03-23T16:23:18;2.65;;;0.80;;
1452;SDS011;720;47.738;7.998;2024-03-23T16:25:50;1.73;;;0.97;;
1452;SDS011;720;47.738;7.998;2024-03-23T16:28:42;1.15;;;0.82;;
1452;SDS011;720;47.738;7.998;2024-03-23T16:31:08;1.50;;;0.90;;
1452;SDS011;720;47.738;7.998;2024-03-23T16:33:35;2.85;;;1.52;;
1452;SDS011;720;47.738;7.998;2024-03-23T16:36:05;1.38;;;1.05;;
1452;SDS011;720;47.738;7.998;2024-03-23T16:38:34;5.15;;;2.92;;
1452;SDS011;720;47.738;7.998;2024-03-23T16:41:05;5.47;;;4.97;;
1452;SDS011;720;47.738;7.998;2024-03-23T16:43:32;3.58;;;1.52;;
1452;SDS011;720;47.738;7.998;2024-03-23T16:45:59;1.55;;;0.77;;